sensor_id;sensor_type;location;lat;lon;timestamp;P1;durP1;ratioP1;P2;durP2;ratioP2
19436;SDS011;9854;50.968;4.168;2022-08-03T00:00:38;11.30;;;1.40;;
19436;SDS011;9854;50.968;4.168;2022-08-03T00:03:04;6.38;;;1.30;;
19436;SDS011;9854;50.968;4.168;2022-08-03T00:05:30;6.28;;;1.30;;
19436;SDS011;9854;50.968;4.168;2022-08-03T00:07:57;6.53;;;1.27;;
19436;SDS011;9854;50.968;4.168;2022-08-03T00:10:23;7.32;;;1.50;;
19436;SDS011;9854;50.968;4.168;2022-08-03T00:12:49;7.28;;;1.27;;
19436;SDS011;9854;50.968;4.168;2022-08-03T00:15:15;6.55;;;1.55;;
19436;SDS011;9854;50.968;4.168;2022-08-03T00:17:41;5.40;;;1.23;;
19436;SDS011;9854;50.968;4.168;2022-08-03T00:20:06;5.20;;;1.33;;
19436;SDS011;9854;50.968;4.168;2022-08-03T00:22:33;6.80;;;1.60;;
19436;SDS011;9854;50.968;4.168;2022-08-03T00:24:59;10.85;;;1.83;;
19436;SDS011;9854;50.968;4.168;2022-08-03T00:27:25;5.10;;;1.23;;
19436;SDS011;9854;50.968;4.168;2022-08-03T00:29:50;4.50;;;1.30;;
19436;SDS011;9854;50.968;4.168;2022-08-03T00:32:16;6.15;;;1.60;;
19436;SDS011;9854;50.968;4.168;2022-08-03T00:34:42;9.07;;;1.50;;
19436;SDS011;9854;50.968;4.168;2022-08-03T00:37:07;4.80;;;1.20;;
19436;SDS011;9854;50.968;4.168;2022-08-03T00:39:33;4.75;;;1.77;;
19436;SDS011;9854;50.968;4.168;2022-08-03T00:42:02;15.00;;;1.92;;
19436;SDS011;9854;50.968;4.168;2022-08-03T00:44:28;4.32;;;1.60;;
19436;SDS011;9854;50.968;4.168;2022-08-03T00:46:54;7.57;;;1.42;;
19436;SDS011;9854;50.968;4.168;2022-08-03T00:49:20;6.05;;;1.30;;
19436;SDS011;9854;50.968;4.168;2022-08-03T00:51:46;9.13;;;1.50;;
19436;SDS011;9854;50.968;4.168;2022-08-03T00:54:13;5.00;;;1.83;;
19436;SDS011;9854;50.968;4.168;2022-08-03T00:56:39;7.22;;;1.38;;
19436;SDS011;9854;50.968;4.168;2022-08-03T00:59:06;8.13;;;1.65;;
19436;SDS011;9854;50.968;4.168;2022-08-03T01:01:34;8.65;;;1.58;;
19436;SDS011;9854;50.968;4.168;2022-08-03T01:04:00;3.72;;;1.73;;
19436;SDS011;9854;50.968;4.168;2022-08-03T01:14:38;6.55;;;1.40;;
19436;SDS011;9854;50.968;4.168;2022-08-03T01:31:07;6.40;;;1.40;;
19436;SDS011;9854;50.968;4.168;2022-08-03T01:33:36;8.90;;;1.27;;
19436;SDS011;9854;50.968;4.168;2022-08-03T01:36:15;8.17;;;1.67;;
19436;SDS011;9854;50.968;4.168;2022-08-03T01:38:45;6.85;;;1.63;;
19436;SDS011;9854;50.968;4.168;2022-08-03T01:41:18;11.88;;;1.75;;
19436;SDS011;9854;50.968;4.168;2022-08-03T01:43:46;6.10;;;1.23;;
19436;SDS011;9854;50.968;4.168;2022-08-03T01:46:14;13.73;;;1.88;;
19436;SDS011;9854;50.968;4.168;2022-08-03T01:48:42;6.90;;;1.40;;
19436;SDS011;9854;50.968;4.168;2022-08-03T01:51:10;5.72;;;1.55;;
19436;SDS011;9854;50.968;4.168;2022-08-03T01:53:38;10.15;;;1.80;;
19436;SDS011;9854;50.968;4.168;2022-08-03T01:56:07;4.72;;;1.27;;
19436;SDS011;9854;50.968;4.168;2022-08-03T01:58:34;7.65;;;1.65;;
19436;SDS011;9854;50.968;4.168;2022-08-03T02:01:02;15.63;;;2.03;;
19436;SDS011;9854;50.968;4.168;2022-08-03T02:03:30;12.63;;;1.77;;
19436;SDS011;9854;50.968;4.168;2022-08-03T02:05:58;9.07;;;1.50;;
19436;SDS011;9854;50.968;4.168;2022-08-03T02:08:25;7.88;;;1.90;;
19436;SDS011;9854;50.968;4.168;2022-08-03T02:10:53;9.55;;;1.75;;
19436;SDS011;9854;50.968;4.168;2022-08-03T02:13:20;11.00;;;1.60;;
19436;SDS011;9854;50.968;4.168;2022-08-03T02:15:48;8.10;;;2.05;;
19436;SDS011;9854;50.968;4.168;2022-08-03T02:18:16;8.05;;;2.10;;
19436;SDS011;9854;50.968;4.168;2022-08-03T02:20:44;7.88;;;1.80;;
19436;SDS011;9854;50.968;4.168;2022-08-03T02:23:10;12.85;;;1.85;;
19436;SDS011;9854;50.968;4.168;2022-08-03T02:25:43;11.85;;;1.73;;
19436;SDS011;9854;50.968;4.168;2022-08-03T02:28:31;7.95;;;1.92;;
19436;SDS011;9854;50.968;4.168;2022-08-03T02:31:00;10.45;;;1.67;;
19436;SDS011;9854;50.968;4.168;2022-08-03T02:33:31;11.45;;;1.73;;
19436;SDS011;9854;50.968;4.168;2022-08-03T02:36:00;8.50;;;1.98;;
19436;SDS011;9854;50.968;4.168;2022-08-03T02:38:28;11.73;;;1.70;;
19436;SDS011;9854;50.968;4.168;2022-08-03T02:40:57;10.48;;;1.85;;
19436;SDS011;9854;50.968;4.168;2022-08-03T02:43:25;9.18;;;2.70;;
19436;SDS011;9854;50.968;4.168;2022-08-03T02:45:53;4.38;;;1.75;;
19436;SDS011;9854;50.968;4.168;2022-08-03T02:48:22;14.82;;;2.40;;
19436;SDS011;9854;50.968;4.168;2022-08-03T02:50:52;8.23;;;1.60;;
19436;SDS011;9854;50.968;4.168;2022-08-03T02:53:20;16.27;;;1.77;;
19436;SDS011;9854;50.968;4.168;2022-08-03T02:55:48;9.57;;;2.10;;
19436;SDS011;9854;50.968;4.168;2022-08-03T02:58:16;12.90;;;1.80;;
19436;SDS011;9854;50.968;4.168;2022-08-03T03:00:43;12.88;;;2.10;;
19436;SDS011;9854;50.968;4.168;2022-08-03T03:03:10;18.15;;;2.08;;
19436;SDS011;9854;50.968;4.168;2022-08-03T03:05:36;8.13;;;1.85;;
19436;SDS011;9854;50.968;4.168;2022-08-03T03:08:02;7.75;;;1.88;;
19436;SDS011;9854;50.968;4.168;2022-08-03T03:10:28;8.90;;;1.73;;
19436;SDS011;9854;50.968;4.168;2022-08-03T03:12:56;9.43;;;1.80;;
19436;SDS011;9854;50.968;4.168;2022-08-03T03:15:22;13.10;;;2.33;;
19436;SDS011;9854;50.968;4.168;2022-08-03T03:17:49;8.18;;;2.50;;
19436;SDS011;9854;50.968;4.168;2022-08-03T03:20:17;5.90;;;1.75;;
19436;SDS011;9854;50.968;4.168;2022-08-03T03:22:45;12.55;;;1.95;;
19436;SDS011;9854;50.968;4.168;2022-08-03T03:25:15;10.18;;;1.95;;
19436;SDS011;9854;50.968;4.168;2022-08-03T03:27:41;5.55;;;1.65;;
19436;SDS011;9854;50.968;4.168;2022-08-03T03:30:07;8.77;;;2.00;;
19436;SDS011;9854;50.968;4.168;2022-08-03T03:32:33;5.13;;;1.85;;
19436;SDS011;9854;50.968;4.168;2022-08-03T03:35:00;6.47;;;2.65;;
19436;SDS011;9854;50.968;4.168;2022-08-03T03:37:26;6.15;;;2.00;;
19436;SDS011;9854;50.968;4.168;2022-08-03T03:39:52;11.27;;;1.85;;
19436;SDS011;9854;50.968;4.168;2022-08-03T03:42:18;10.27;;;2.05;;
19436;SDS011;9854;50.968;4.168;2022-08-03T03:44:45;9.13;;;2.15;;
19436;SDS011;9854;50.968;4.168;2022-08-03T03:47:10;11.98;;;2.15;;
19436;SDS011;9854;50.968;4.168;2022-08-03T03:49:36;6.68;;;2.10;;
19436;SDS011;9854;50.968;4.168;2022-08-03T03:52:03;9.32;;;1.98;;
19436;SDS011;9854;50.968;4.168;2022-08-03T03:54:38;5.93;;;2.05;;
19436;SDS011;9854;50.968;4.168;2022-08-03T03:57:08;10.68;;;2.47;;
19436;SDS011;9854;50.968;4.168;2022-08-03T03:59:37;11.98;;;1.90;;
19436;SDS011;9854;50.968;4.168;2022-08-03T04:02:05;16.88;;;2.20;;
19436;SDS011;9854;50.968;4.168;2022-08-03T04:04:32;11.63;;;2.17;;
19436;SDS011;9854;50.968;4.168;2022-08-03T04:07:18;5.28;;;1.70;;
19436;SDS011;9854;50.968;4.168;2022-08-03T04:10:04;10.40;;;2.40;;
19436;SDS011;9854;50.968;4.168;2022-08-03T04:12:56;7.20;;;1.95;;
19436;SDS011;9854;50.968;4.168;2022-08-03T04:15:24;6.07;;;1.70;;
19436;SDS011;9854;50.968;4.168;2022-08-03T04:17:53;12.48;;;2.60;;
19436;SDS011;9854;50.968;4.168;2022-08-03T04:20:21;5.22;;;2.17;;
19436;SDS011;9854;50.968;4.168;2022-08-03T04:22:48;8.02;;;1.90;;
19436;SDS011;9854;50.968;4.168;2022-08-03T04:25:15;9.32;;;1.92;;
19436;SDS011;9854;50.968;4.168;2022-08-03T04:27:43;8.52;;;2.40;;
19436;SDS011;9854;50.968;4.168;2022-08-03T04:30:11;17.63;;;2.72;;
19436;SDS011;9854;50.968;4.168;2022-08-03T04:32:39;7.93;;;2.22;;
19436;SDS011;9854;50.968;4.168;2022-08-03T04:35:07;9.85;;;2.63;;
19436;SDS011;9854;50.968;4.168;2022-08-03T04:40:03;10.52;;;2.25;;
19436;SDS011;9854;50.968;4.168;2022-08-03T04:42:32;9.13;;;1.95;;
19436;SDS011;9854;50.968;4.168;2022-08-03T04:44:58;12.90;;;2.50;;
19436;SDS011;9854;50.968;4.168;2022-08-03T04:47:26;9.85;;;2.17;;
19436;SDS011;9854;50.968;4.168;2022-08-03T04:49:52;14.35;;;2.25;;
19436;SDS011;9854;50.968;4.168;2022-08-03T04:52:18;7.70;;;1.75;;
19436;SDS011;9854;50.968;4.168;2022-08-03T04:54:44;7.88;;;2.05;;
19436;SDS011;9854;50.968;4.168;2022-08-03T04:57:10;11.70;;;2.15;;
19436;SDS011;9854;50.968;4.168;2022-08-03T04:59:36;14.50;;;2.35;;
19436;SDS011;9854;50.968;4.168;2022-08-03T05:02:02;9.73;;;1.92;;
19436;SDS011;9854;50.968;4.168;2022-08-03T05:04:28;13.07;;;2.15;;
19436;SDS011;9854;50.968;4.168;2022-08-03T05:06:54;7.70;;;1.55;;
19436;SDS011;9854;50.968;4.168;2022-08-03T05:09:20;13.57;;;2.42;;
19436;SDS011;9854;50.968;4.168;2022-08-03T05:11:45;8.43;;;2.42;;
19436;SDS011;9854;50.968;4.168;2022-08-03T05:14:11;6.45;;;2.08;;
19436;SDS011;9854;50.968;4.168;2022-08-03T05:16:37;9.40;;;2.10;;
19436;SDS011;9854;50.968;4.168;2022-08-03T05:19:02;9.85;;;2.10;;
19436;SDS011;9854;50.968;4.168;2022-08-03T05:21:28;7.45;;;2.30;;
19436;SDS011;9854;50.968;4.168;2022-08-03T05:23:53;10.77;;;2.22;;
19436;SDS011;9854;50.968;4.168;2022-08-03T05:26:19;7.75;;;2.22;;
19436;SDS011;9854;50.968;4.168;2022-08-03T05:28:44;7.70;;;1.88;;
19436;SDS011;9854;50.968;4.168;2022-08-03T05:31:10;12.90;;;2.17;;
19436;SDS011;9854;50.968;4.168;2022-08-03T05:33:37;7.82;;;2.13;;
19436;SDS011;9854;50.968;4.168;2022-08-03T05:36:03;8.95;;;3.13;;
19436;SDS011;9854;50.968;4.168;2022-08-03T05:38:30;6.35;;;2.38;;
19436;SDS011;9854;50.968;4.168;2022-08-03T05:40:56;8.02;;;2.25;;
19436;SDS011;9854;50.968;4.168;2022-08-03T05:43:22;12.85;;;2.20;;
19436;SDS011;9854;50.968;4.168;2022-08-03T05:45:48;9.27;;;2.80;;
19436;SDS011;9854;50.968;4.168;2022-08-03T05:48:13;8.35;;;2.35;;
19436;SDS011;9854;50.968;4.168;2022-08-03T05:50:39;6.70;;;2.15;;
19436;SDS011;9854;50.968;4.168;2022-08-03T05:53:05;18.20;;;3.38;;
19436;SDS011;9854;50.968;4.168;2022-08-03T05:55:31;13.55;;;2.80;;
19436;SDS011;9854;50.968;4.168;2022-08-03T05:57:56;14.73;;;2.53;;
19436;SDS011;9854;50.968;4.168;2022-08-03T06:00:22;19.27;;;2.92;;
19436;SDS011;9854;50.968;4.168;2022-08-03T06:02:48;10.55;;;2.50;;
19436;SDS011;9854;50.968;4.168;2022-08-03T06:05:13;15.50;;;2.83;;
19436;SDS011;9854;50.968;4.168;2022-08-03T06:07:39;14.35;;;2.70;;
19436;SDS011;9854;50.968;4.168;2022-08-03T06:10:05;8.43;;;2.25;;
19436;SDS011;9854;50.968;4.168;2022-08-03T06:12:31;10.45;;;2.35;;
19436;SDS011;9854;50.968;4.168;2022-08-03T06:14:59;12.00;;;2.17;;
19436;SDS011;9854;50.968;4.168;2022-08-03T06:17:26;11.65;;;2.15;;
19436;SDS011;9854;50.968;4.168;2022-08-03T06:19:52;18.50;;;3.15;;
19436;SDS011;9854;50.968;4.168;2022-08-03T06:22:18;7.95;;;2.25;;
19436;SDS011;9854;50.968;4.168;2022-08-03T06:24:44;19.83;;;2.50;;
19436;SDS011;9854;50.968;4.168;2022-08-03T06:27:09;15.07;;;2.47;;
19436;SDS011;9854;50.968;4.168;2022-08-03T06:29:36;8.52;;;1.85;;
19436;SDS011;9854;50.968;4.168;2022-08-03T06:32:02;15.52;;;2.17;;
19436;SDS011;9854;50.968;4.168;2022-08-03T06:34:27;11.38;;;1.83;;
19436;SDS011;9854;50.968;4.168;2022-08-03T06:36:53;7.03;;;1.90;;
19436;SDS011;9854;50.968;4.168;2022-08-03T06:39:19;8.77;;;2.13;;
19436;SDS011;9854;50.968;4.168;2022-08-03T06:41:45;20.20;;;2.50;;
19436;SDS011;9854;50.968;4.168;2022-08-03T06:44:12;12.10;;;2.15;;
19436;SDS011;9854;50.968;4.168;2022-08-03T06:46:37;7.47;;;2.10;;
19436;SDS011;9854;50.968;4.168;2022-08-03T06:49:03;10.52;;;2.30;;
19436;SDS011;9854;50.968;4.168;2022-08-03T06:51:30;14.60;;;2.10;;
19436;SDS011;9854;50.968;4.168;2022-08-03T06:53:56;15.05;;;2.10;;
19436;SDS011;9854;50.968;4.168;2022-08-03T06:56:21;13.20;;;2.10;;
19436;SDS011;9854;50.968;4.168;2022-08-03T06:58:47;13.18;;;2.85;;
19436;SDS011;9854;50.968;4.168;2022-08-03T07:01:13;15.70;;;2.05;;
19436;SDS011;9854;50.968;4.168;2022-08-03T07:03:39;8.88;;;1.88;;
19436;SDS011;9854;50.968;4.168;2022-08-03T07:06:05;11.98;;;1.73;;
19436;SDS011;9854;50.968;4.168;2022-08-03T07:08:30;8.57;;;1.67;;
19436;SDS011;9854;50.968;4.168;2022-08-03T07:10:56;14.05;;;2.10;;
19436;SDS011;9854;50.968;4.168;2022-08-03T07:13:22;8.25;;;1.67;;
19436;SDS011;9854;50.968;4.168;2022-08-03T07:15:47;8.15;;;1.45;;
19436;SDS011;9854;50.968;4.168;2022-08-03T07:18:13;6.60;;;1.42;;
19436;SDS011;9854;50.968;4.168;2022-08-03T07:20:39;11.30;;;1.75;;
19436;SDS011;9854;50.968;4.168;2022-08-03T07:23:04;9.40;;;1.88;;
19436;SDS011;9854;50.968;4.168;2022-08-03T07:25:30;4.20;;;1.42;;
19436;SDS011;9854;50.968;4.168;2022-08-03T07:27:56;8.68;;;1.85;;
19436;SDS011;9854;50.968;4.168;2022-08-03T07:30:21;12.10;;;1.73;;
19436;SDS011;9854;50.968;4.168;2022-08-03T07:32:47;9.35;;;1.67;;
19436;SDS011;9854;50.968;4.168;2022-08-03T07:35:13;12.98;;;1.48;;
19436;SDS011;9854;50.968;4.168;2022-08-03T07:37:38;8.65;;;1.38;;
19436;SDS011;9854;50.968;4.168;2022-08-03T07:40:04;9.15;;;1.73;;
19436;SDS011;9854;50.968;4.168;2022-08-03T07:42:30;11.05;;;1.58;;
19436;SDS011;9854;50.968;4.168;2022-08-03T07:44:57;14.57;;;1.90;;
19436;SDS011;9854;50.968;4.168;2022-08-03T07:47:24;10.45;;;1.55;;
19436;SDS011;9854;50.968;4.168;2022-08-03T07:49:52;13.48;;;2.13;;
19436;SDS011;9854;50.968;4.168;2022-08-03T07:52:18;10.77;;;1.77;;
19436;SDS011;9854;50.968;4.168;2022-08-03T07:55:03;9.70;;;1.55;;
19436;SDS011;9854;50.968;4.168;2022-08-03T07:57:30;11.40;;;1.67;;
19436;SDS011;9854;50.968;4.168;2022-08-03T07:59:56;8.77;;;1.70;;
19436;SDS011;9854;50.968;4.168;2022-08-03T08:02:22;12.90;;;2.00;;
19436;SDS011;9854;50.968;4.168;2022-08-03T08:04:48;8.75;;;1.38;;
19436;SDS011;9854;50.968;4.168;2022-08-03T08:07:13;11.38;;;2.13;;
19436;SDS011;9854;50.968;4.168;2022-08-03T08:09:39;7.75;;;1.70;;
19436;SDS011;9854;50.968;4.168;2022-08-03T08:12:04;12.23;;;1.88;;
19436;SDS011;9854;50.968;4.168;2022-08-03T08:14:32;5.68;;;1.48;;
19436;SDS011;9854;50.968;4.168;2022-08-03T08:16:58;19.63;;;1.98;;
19436;SDS011;9854;50.968;4.168;2022-08-03T08:19:23;15.73;;;1.75;;
19436;SDS011;9854;50.968;4.168;2022-08-03T08:21:49;10.07;;;2.00;;
19436;SDS011;9854;50.968;4.168;2022-08-03T08:24:15;12.82;;;1.80;;
19436;SDS011;9854;50.968;4.168;2022-08-03T08:26:40;11.63;;;1.73;;
19436;SDS011;9854;50.968;4.168;2022-08-03T08:29:06;11.73;;;2.40;;
19436;SDS011;9854;50.968;4.168;2022-08-03T08:31:31;6.72;;;1.90;;
19436;SDS011;9854;50.968;4.168;2022-08-03T08:33:57;9.27;;;1.50;;
19436;SDS011;9854;50.968;4.168;2022-08-03T08:36:23;12.35;;;1.95;;
19436;SDS011;9854;50.968;4.168;2022-08-03T08:38:48;14.40;;;1.88;;
19436;SDS011;9854;50.968;4.168;2022-08-03T08:41:14;12.32;;;2.25;;
19436;SDS011;9854;50.968;4.168;2022-08-03T08:43:41;11.65;;;2.00;;
19436;SDS011;9854;50.968;4.168;2022-08-03T08:46:08;12.55;;;1.98;;
19436;SDS011;9854;50.968;4.168;2022-08-03T08:48:39;12.32;;;1.90;;
19436;SDS011;9854;50.968;4.168;2022-08-03T08:51:07;11.02;;;2.72;;
19436;SDS011;9854;50.968;4.168;2022-08-03T08:53:35;13.18;;;2.33;;
19436;SDS011;9854;50.968;4.168;2022-08-03T08:56:04;18.45;;;2.60;;
19436;SDS011;9854;50.968;4.168;2022-08-03T08:58:35;9.90;;;1.77;;
19436;SDS011;9854;50.968;4.168;2022-08-03T09:01:03;16.25;;;2.13;;
19436;SDS011;9854;50.968;4.168;2022-08-03T09:03:30;13.30;;;2.30;;
19436;SDS011;9854;50.968;4.168;2022-08-03T09:05:59;15.73;;;1.85;;
19436;SDS011;9854;50.968;4.168;2022-08-03T09:08:25;8.50;;;1.63;;
19436;SDS011;9854;50.968;4.168;2022-08-03T09:10:50;13.48;;;1.83;;
19436;SDS011;9854;50.968;4.168;2022-08-03T09:13:16;10.73;;;1.85;;
19436;SDS011;9854;50.968;4.168;2022-08-03T09:15:42;16.95;;;1.83;;
19436;SDS011;9854;50.968;4.168;2022-08-03T09:18:08;10.05;;;2.22;;
19436;SDS011;9854;50.968;4.168;2022-08-03T09:20:35;10.98;;;2.25;;
19436;SDS011;9854;50.968;4.168;2022-08-03T09:25:38;13.60;;;2.15;;
19436;SDS011;9854;50.968;4.168;2022-08-03T09:28:06;12.63;;;1.80;;
19436;SDS011;9854;50.968;4.168;2022-08-03T09:30:44;9.82;;;1.85;;
19436;SDS011;9854;50.968;4.168;2022-08-03T09:33:22;11.50;;;1.50;;
19436;SDS011;9854;50.968;4.168;2022-08-03T09:35:48;13.15;;;1.92;;
19436;SDS011;9854;50.968;4.168;2022-08-03T09:38:21;8.23;;;1.90;;
19436;SDS011;9854;50.968;4.168;2022-08-03T09:40:50;9.05;;;1.83;;
19436;SDS011;9854;50.968;4.168;2022-08-03T09:43:16;7.72;;;1.45;;
19436;SDS011;9854;50.968;4.168;2022-08-03T09:45:42;6.25;;;1.63;;
19436;SDS011;9854;50.968;4.168;2022-08-03T09:48:21;9.40;;;1.90;;
19436;SDS011;9854;50.968;4.168;2022-08-03T09:50:51;6.47;;;1.42;;
19436;SDS011;9854;50.968;4.168;2022-08-03T09:53:21;19.40;;;2.25;;
19436;SDS011;9854;50.968;4.168;2022-08-03T09:58:27;10.77;;;1.40;;
19436;SDS011;9854;50.968;4.168;2022-08-03T10:01:01;11.80;;;1.42;;
19436;SDS011;9854;50.968;4.168;2022-08-03T10:03:32;7.30;;;1.50;;
19436;SDS011;9854;50.968;4.168;2022-08-03T10:06:13;6.35;;;1.42;;
19436;SDS011;9854;50.968;4.168;2022-08-03T10:08:46;10.18;;;2.00;;
19436;SDS011;9854;50.968;4.168;2022-08-03T10:11:29;5.57;;;1.38;;
19436;SDS011;9854;50.968;4.168;2022-08-03T10:13:56;6.30;;;1.30;;
19436;SDS011;9854;50.968;4.168;2022-08-03T10:16:22;5.38;;;1.25;;
19436;SDS011;9854;50.968;4.168;2022-08-03T10:18:47;8.52;;;1.00;;
19436;SDS011;9854;50.968;4.168;2022-08-03T10:21:14;10.73;;;1.67;;
19436;SDS011;9854;50.968;4.168;2022-08-03T10:23:43;7.22;;;1.35;;
19436;SDS011;9854;50.968;4.168;2022-08-03T10:26:10;4.80;;;1.50;;
19436;SDS011;9854;50.968;4.168;2022-08-03T10:28:41;4.90;;;1.30;;
19436;SDS011;9854;50.968;4.168;2022-08-03T10:31:12;7.93;;;1.30;;
19436;SDS011;9854;50.968;4.168;2022-08-03T10:33:41;4.88;;;1.40;;
19436;SDS011;9854;50.968;4.168;2022-08-03T10:36:08;4.15;;;1.10;;
19436;SDS011;9854;50.968;4.168;2022-08-03T10:38:37;8.55;;;1.30;;
19436;SDS011;9854;50.968;4.168;2022-08-03T10:41:20;7.30;;;1.20;;
19436;SDS011;9854;50.968;4.168;2022-08-03T10:43:49;5.65;;;1.50;;
19436;SDS011;9854;50.968;4.168;2022-08-03T10:46:30;6.47;;;1.20;;
19436;SDS011;9854;50.968;4.168;2022-08-03T10:48:59;9.45;;;1.10;;
19436;SDS011;9854;50.968;4.168;2022-08-03T10:51:25;7.65;;;1.60;;
19436;SDS011;9854;50.968;4.168;2022-08-03T10:53:55;6.32;;;1.55;;
19436;SDS011;9854;50.968;4.168;2022-08-03T10:59:15;9.55;;;1.48;;
19436;SDS011;9854;50.968;4.168;2022-08-03T11:01:54;2.85;;;0.90;;
19436;SDS011;9854;50.968;4.168;2022-08-03T11:04:22;4.97;;;1.15;;
19436;SDS011;9854;50.968;4.168;2022-08-03T11:07:17;5.72;;;1.30;;
19436;SDS011;9854;50.968;4.168;2022-08-03T11:09:40;10.75;;;1.50;;
19436;SDS011;9854;50.968;4.168;2022-08-03T11:12:20;10.82;;;1.30;;
19436;SDS011;9854;50.968;4.168;2022-08-03T11:14:46;8.35;;;1.00;;
19436;SDS011;9854;50.968;4.168;2022-08-03T11:17:13;7.82;;;0.90;;
19436;SDS011;9854;50.968;4.168;2022-08-03T11:19:42;7.93;;;1.15;;
19436;SDS011;9854;50.968;4.168;2022-08-03T11:22:09;1.60;;;0.80;;
19436;SDS011;9854;50.968;4.168;2022-08-03T11:29:52;5.30;;;0.93;;
19436;SDS011;9854;50.968;4.168;2022-08-03T11:33:04;4.95;;;1.00;;
19436;SDS011;9854;50.968;4.168;2022-08-03T11:46:08;10.32;;;0.93;;
19436;SDS011;9854;50.968;4.168;2022-08-03T11:48:41;7.20;;;1.00;;
19436;SDS011;9854;50.968;4.168;2022-08-03T11:51:25;15.55;;;1.08;;
19436;SDS011;9854;50.968;4.168;2022-08-03T11:53:55;8.48;;;1.27;;
19436;SDS011;9854;50.968;4.168;2022-08-03T11:56:22;3.47;;;1.00;;
19436;SDS011;9854;50.968;4.168;2022-08-03T11:58:51;12.20;;;1.10;;
19436;SDS011;9854;50.968;4.168;2022-08-03T12:01:21;9.27;;;0.85;;
19436;SDS011;9854;50.968;4.168;2022-08-03T12:03:48;7.45;;;0.88;;
19436;SDS011;9854;50.968;4.168;2022-08-03T12:06:15;3.40;;;1.30;;
19436;SDS011;9854;50.968;4.168;2022-08-03T12:08:42;9.27;;;1.05;;
19436;SDS011;9854;50.968;4.168;2022-08-03T12:11:10;4.55;;;0.85;;
19436;SDS011;9854;50.968;4.168;2022-08-03T12:13:42;2.40;;;0.93;;
19436;SDS011;9854;50.968;4.168;2022-08-03T12:16:18;5.43;;;0.88;;
19436;SDS011;9854;50.968;4.168;2022-08-03T12:18:45;4.07;;;0.70;;
19436;SDS011;9854;50.968;4.168;2022-08-03T12:21:24;8.35;;;0.85;;
19436;SDS011;9854;50.968;4.168;2022-08-03T12:23:50;6.70;;;0.90;;
19436;SDS011;9854;50.968;4.168;2022-08-03T12:26:20;4.85;;;1.00;;
19436;SDS011;9854;50.968;4.168;2022-08-03T12:28:46;5.35;;;0.88;;
19436;SDS011;9854;50.968;4.168;2022-08-03T12:31:13;7.53;;;0.90;;
19436;SDS011;9854;50.968;4.168;2022-08-03T12:33:57;5.82;;;1.65;;
19436;SDS011;9854;50.968;4.168;2022-08-03T12:36:32;2.05;;;0.82;;
19436;SDS011;9854;50.968;4.168;2022-08-03T12:39:04;3.28;;;0.75;;
19436;SDS011;9854;50.968;4.168;2022-08-03T12:41:35;2.67;;;0.65;;
19436;SDS011;9854;50.968;4.168;2022-08-03T12:44:02;4.32;;;0.57;;
19436;SDS011;9854;50.968;4.168;2022-08-03T12:49:06;2.33;;;0.70;;
19436;SDS011;9854;50.968;4.168;2022-08-03T12:54:24;2.72;;;0.70;;
19436;SDS011;9854;50.968;4.168;2022-08-03T12:57:00;5.55;;;1.27;;
19436;SDS011;9854;50.968;4.168;2022-08-03T12:59:31;2.58;;;0.63;;
19436;SDS011;9854;50.968;4.168;2022-08-03T13:01:58;3.00;;;0.88;;
19436;SDS011;9854;50.968;4.168;2022-08-03T13:07:00;9.82;;;1.17;;
19436;SDS011;9854;50.968;4.168;2022-08-03T13:09:41;4.95;;;0.90;;
19436;SDS011;9854;50.968;4.168;2022-08-03T13:12:09;2.05;;;0.70;;
19436;SDS011;9854;50.968;4.168;2022-08-03T13:14:36;2.10;;;0.85;;
19436;SDS011;9854;50.968;4.168;2022-08-03T13:17:03;4.30;;;1.17;;
19436;SDS011;9854;50.968;4.168;2022-08-03T13:19:30;3.20;;;0.90;;
19436;SDS011;9854;50.968;4.168;2022-08-03T13:21:57;6.03;;;0.80;;
19436;SDS011;9854;50.968;4.168;2022-08-03T13:24:22;5.55;;;0.70;;
19436;SDS011;9854;50.968;4.168;2022-08-03T13:26:48;3.08;;;0.70;;
19436;SDS011;9854;50.968;4.168;2022-08-03T13:29:15;2.40;;;0.80;;
19436;SDS011;9854;50.968;4.168;2022-08-03T13:31:41;2.72;;;0.70;;
19436;SDS011;9854;50.968;4.168;2022-08-03T13:34:07;5.03;;;0.90;;
19436;SDS011;9854;50.968;4.168;2022-08-03T13:36:32;6.57;;;0.98;;
19436;SDS011;9854;50.968;4.168;2022-08-03T13:38:58;1.63;;;0.70;;
19436;SDS011;9854;50.968;4.168;2022-08-03T13:41:23;6.20;;;1.10;;
19436;SDS011;9854;50.968;4.168;2022-08-03T13:43:49;5.70;;;1.02;;
19436;SDS011;9854;50.968;4.168;2022-08-03T13:46:15;6.47;;;0.73;;
19436;SDS011;9854;50.968;4.168;2022-08-03T13:48:40;8.75;;;0.90;;
19436;SDS011;9854;50.968;4.168;2022-08-03T13:51:06;3.50;;;0.65;;
19436;SDS011;9854;50.968;4.168;2022-08-03T13:53:31;8.43;;;0.98;;
19436;SDS011;9854;50.968;4.168;2022-08-03T13:55:57;3.90;;;0.70;;
19436;SDS011;9854;50.968;4.168;2022-08-03T13:58:23;3.67;;;1.05;;
19436;SDS011;9854;50.968;4.168;2022-08-03T14:00:48;7.35;;;1.05;;
19436;SDS011;9854;50.968;4.168;2022-08-03T14:03:14;3.70;;;0.75;;
19436;SDS011;9854;50.968;4.168;2022-08-03T14:05:40;3.03;;;0.95;;
19436;SDS011;9854;50.968;4.168;2022-08-03T14:08:06;3.67;;;1.00;;
19436;SDS011;9854;50.968;4.168;2022-08-03T14:10:33;4.53;;;0.70;;
19436;SDS011;9854;50.968;4.168;2022-08-03T14:13:03;11.70;;;1.00;;
19436;SDS011;9854;50.968;4.168;2022-08-03T14:15:29;7.68;;;0.82;;
19436;SDS011;9854;50.968;4.168;2022-08-03T14:17:55;5.13;;;1.13;;
19436;SDS011;9854;50.968;4.168;2022-08-03T14:20:21;1.77;;;0.90;;
19436;SDS011;9854;50.968;4.168;2022-08-03T14:22:47;3.17;;;0.90;;
19436;SDS011;9854;50.968;4.168;2022-08-03T14:25:12;3.72;;;0.73;;
19436;SDS011;9854;50.968;4.168;2022-08-03T14:27:38;3.65;;;0.70;;
19436;SDS011;9854;50.968;4.168;2022-08-03T14:30:04;1.80;;;0.70;;
19436;SDS011;9854;50.968;4.168;2022-08-03T14:32:30;3.20;;;0.90;;
19436;SDS011;9854;50.968;4.168;2022-08-03T14:34:55;4.72;;;0.63;;
19436;SDS011;9854;50.968;4.168;2022-08-03T14:37:21;3.35;;;0.82;;
19436;SDS011;9854;50.968;4.168;2022-08-03T14:39:47;2.90;;;0.98;;
19436;SDS011;9854;50.968;4.168;2022-08-03T14:42:13;1.52;;;0.65;;
19436;SDS011;9854;50.968;4.168;2022-08-03T14:44:39;2.15;;;0.80;;
19436;SDS011;9854;50.968;4.168;2022-08-03T14:47:05;5.00;;;0.85;;
19436;SDS011;9854;50.968;4.168;2022-08-03T14:49:31;9.35;;;0.93;;
19436;SDS011;9854;50.968;4.168;2022-08-03T14:51:56;3.47;;;0.75;;
19436;SDS011;9854;50.968;4.168;2022-08-03T14:54:22;3.63;;;0.73;;
19436;SDS011;9854;50.968;4.168;2022-08-03T14:56:48;1.70;;;0.50;;
19436;SDS011;9854;50.968;4.168;2022-08-03T14:59:14;5.90;;;0.80;;
19436;SDS011;9854;50.968;4.168;2022-08-03T15:01:39;6.85;;;0.80;;
19436;SDS011;9854;50.968;4.168;2022-08-03T15:04:05;8.60;;;0.90;;
19436;SDS011;9854;50.968;4.168;2022-08-03T15:06:31;1.60;;;0.65;;
19436;SDS011;9854;50.968;4.168;2022-08-03T15:08:56;1.38;;;0.65;;
19436;SDS011;9854;50.968;4.168;2022-08-03T15:11:22;6.13;;;0.68;;
19436;SDS011;9854;50.968;4.168;2022-08-03T15:13:47;3.33;;;0.55;;
19436;SDS011;9854;50.968;4.168;2022-08-03T15:16:13;4.47;;;0.70;;
19436;SDS011;9854;50.968;4.168;2022-08-03T15:18:39;4.28;;;0.70;;
19436;SDS011;9854;50.968;4.168;2022-08-03T15:21:05;2.38;;;0.80;;
19436;SDS011;9854;50.968;4.168;2022-08-03T15:23:30;4.70;;;1.00;;
19436;SDS011;9854;50.968;4.168;2022-08-03T15:25:56;4.05;;;0.52;;
19436;SDS011;9854;50.968;4.168;2022-08-03T15:28:22;2.40;;;0.82;;
19436;SDS011;9854;50.968;4.168;2022-08-03T15:30:47;1.45;;;0.52;;
19436;SDS011;9854;50.968;4.168;2022-08-03T15:33:15;5.43;;;0.63;;
19436;SDS011;9854;50.968;4.168;2022-08-03T15:35:41;1.83;;;0.60;;
19436;SDS011;9854;50.968;4.168;2022-08-03T15:38:06;4.45;;;0.70;;
19436;SDS011;9854;50.968;4.168;2022-08-03T15:40:32;6.05;;;1.00;;
19436;SDS011;9854;50.968;4.168;2022-08-03T15:42:58;4.28;;;0.77;;
19436;SDS011;9854;50.968;4.168;2022-08-03T15:45:25;7.47;;;0.80;;
19436;SDS011;9854;50.968;4.168;2022-08-03T15:47:51;3.28;;;0.60;;
19436;SDS011;9854;50.968;4.168;2022-08-03T15:50:17;1.42;;;0.70;;
19436;SDS011;9854;50.968;4.168;2022-08-03T15:52:42;2.33;;;0.70;;
19436;SDS011;9854;50.968;4.168;2022-08-03T15:55:08;1.60;;;0.65;;
19436;SDS011;9854;50.968;4.168;2022-08-03T15:57:34;2.22;;;0.60;;